Valentino Caprioli

Olheiro - Como
6 Dez 2028
Quarta-feira
Processo

Personalidade

Adaptabilidade (14) Ambição (11) Controvérsia (20) Lealdade (3) Pressão (11) Profissionalismo (7) Espírito Esportivo (15) Temperamento (11)

Perfil

Estilo de Treinamento Democrático
Licença Nacional B
Determinação 11
Gestão de Pessoas 7
Motivação 5
Disciplina 10
Satisfação no Trabalho
100%
Fadiga
0%
Função Olheiro
Salário 26.3K p/s
Contrato 14.03.2029

Desempenho

Comportamento Bom
Eficácia do Treinamento
34%
Desenvolvimento do Jogador
25%
Prevenção de Lesões
45%
Implementação Tática
30%

Eventos Recentes

Participou de uma reunião de recrutamento agora
Recomendou um alvo de transferência agora
Recomendou um alvo de transferência agora
Participou de uma reunião de recrutamento 7d atrás
Recomendou um alvo de transferência 7d atrás
Recomendou um alvo de transferência 7d atrás
Recomendou um alvo de transferência 7d atrás
Recomendou um alvo de transferência 7d atrás

Monitorando agora

134
Jogador Clube Status Habilidade Confiança Observado Última observação Último voto
Josh King Newcastle United Ativo 154 / 162 40% 2 20.11.2028 -
Iestyn Jones Swansea City Ativo 109 / 115 40% 1 20.11.2028 -
Miguel Figueiredo Benfica Ativo 132 / 131 40% 9 17.11.2028 -
Filip Reshane Stabaek Ativo 91 / 102 40% 2 17.11.2028 -
Vitaly Bondarev Ural Ativo 112 / 106 40% 1 14.11.2028 -
Máximo Munarriz San Telmo Ativo 105 / 110 40% 1 14.11.2028 -
Luka Vušković Tottenham Ativo 146 / 155 40% 3 12.11.2028 -
Celías Ingenthron Platense Ativo 120 / 125 40% 2 12.11.2028 -
Martim Cunha Porto Ativo 125 / 118 40% 5 11.11.2028 -
Jack Shorrock Port Vale Ativo 119 / 117 40% 1 10.11.2028 -
Louis Page Leicester City Ativo 136 / 132 40% 1 10.11.2028 -
Riquelme Thompson-Jones Accrington Stanley Ativo 117 / 119 40% 4 09.11.2028 -
Andrey Ivlev Nizhniy Novgorod Ativo 102 / 106 40% 3 09.11.2028 -
Davinchi Getafe Ativo 131 / 123 40% 1 08.11.2028 -
Christos Mouzakitis Hull City Ativo 151 / 147 40% 7 07.11.2028 -
Germán Barbas Racing Santander Ativo 125 / 124 40% 1 07.11.2028 -
Felipe Obradovich Ferro Carril Oeste Ativo 102 / 113 40% 1 21.10.2028 -
Darryl Bakola Sassuolo Ativo 123 / 134 40% 1 21.10.2028 -
Malte Heyde Esbjerg Ativo 93 / 121 40% 1 18.10.2028 -
Daniel Banjaqui Benfica Ativo 131 / 128 40% 2 17.10.2028 -
Moses Sesay Southampton Ativo 121 / 134 40% 1 17.10.2028 -
Jaydan Kamason Manchester United Ativo 113 / 122 40% 2 15.10.2028 -
Federico Nardin Willem II Ativo 100 / 102 40% 1 15.10.2028 -
Chris Rigg West Ham United Ativo 129 / 143 40% 1 13.10.2028 -
Jofre Torrents Ajax Ativo 141 / 136 40% 1 13.10.2028 -
Matías Satas Grimsby Town Ativo 114 / 121 40% 1 11.10.2028 -
Tobías Ramírez River Plate Ativo 134 / 138 40% 3 09.10.2028 -
Alejandro Almaraz NK Celje Ativo 133 / 117 40% 1 07.10.2028 -
Giorgio Vezzosi Sassuolo Ativo 119 / 117 40% 1 07.10.2028 -
Valentín Loza Defensa y Justicia Ativo 91 / 106 40% 1 04.10.2028 -
Ignacio Ovando Rosario Central Ativo 114 / 119 40% 1 04.10.2028 -
Giovanni Leoni Lincoln City Ativo 136 / 152 40% 4 04.09.2028 -
Axel Tape Bayer Leverkusen Ativo 148 / 138 40% 1 04.09.2028 -
Augusto Bando Ascoli Ativo 99 / 122 40% 4 14.08.2028 -
Antonio Boccadamo Virtus Entella Ativo 98 / 115 44% 1 14.08.2028 -
Mauro Carrizo Atlético Tucumán Ativo 105 / 101 40% 1 07.08.2028 -
Alin Kumer Čelik Genoa Ativo 106 / 114 40% 1 07.08.2028 -
Olivier Leroux Mouscron Ativo 109 / 119 40% 3 17.07.2028 -
Cheveyo Tsawa Club Brugge Ativo 117 / 134 40% 1 17.07.2028 -
Nejc Viher NK Maribor Ativo 115 / 118 40% 3 30.05.2028 -
Alessio Insignito Spezia Ativo 113 / 103 40% 2 25.05.2028 -
Callum Olusesi Tottenham Ativo 128 / 115 40% 1 24.05.2028 -
Ayden Heaven Portsmouth Ativo 148 / 158 40% 2 23.05.2028 -
Noahkai Banks FC Augsburg Ativo 131 / 140 40% 2 22.05.2028 -
Jorthy Mokio ADO Den Haag Ativo 126 / 131 40% 4 20.05.2028 -
Tyler Fletcher Rotherham United Ativo 121 / 110 40% 1 19.05.2028 -
Bernardo Lima Porto Ativo 104 / 122 40% 3 17.05.2028 -
Nazareno Roselli Defensa y Justicia Ativo 105 / 120 40% 2 16.05.2028 -
Andrea Cogoni Cosenza Ativo 95 / 111 40% 1 16.05.2028 -
Trey Nyoni Rotherham United Ativo 135 / 143 40% 4 08.05.2028 -
Lautaro Dufur Juventud Ativo 102 / 105 40% 1 28.04.2028 -
Isaiah Dada-Mascoll Gillingham Ativo 103 / 103 40% 1 25.04.2028 -
Josh Stephenson Brentford Ativo 117 / 112 40% 1 25.04.2028 -
Vasilije Novičić IMT Ativo 106 / 111 40% 1 21.04.2028 -
Charlie Crew Leeds United Ativo 120 / 124 40% 1 21.04.2028 -
Jason Witsel PSV Ativo 131 / 135 40% 1 15.04.2028 -
Matvey Bardachev Zenit Ativo 104 / 110 40% 7 04.04.2028 -
Olivier Mambwa Young Boys Ativo 109 / 128 40% 2 29.03.2028 -
Juan Giménez Rosario Central Ativo 103 / 116 40% 1 27.03.2028 -
Ezra Mayers West Ham United Ativo 120 / 135 40% 1 27.03.2028 -
Josh Acheampong Everton Ativo 152 / 153 40% 6 25.03.2028 -
Thiago Silvero Vélez Ativo 139 / 132 40% 1 20.03.2028 -
Othniël Raterink Cagliari Ativo 103 / 123 40% 3 25.01.2028 -
Mao Hosoya Santos Ativo 134 / 135 67% 1 01.01.2028 Aprovar
Boubacar Fofana Como Ativo 115 / 115 66% 1 01.01.2028 Aprovar
Matěj Ryneš AS Nancy Ativo 122 / 123 67% 1 01.01.2028 Aprovar
Victor Hernandez Santa Fe Ativo 133 / 121 40% 3 30.12.2027 -
Kiani Inge Groningen Ativo 102 / 117 40% 3 28.12.2027 -
Oscar Steinke Brånby Hammarby Ativo 111 / 125 40% 4 27.12.2027 -
Amine Boukamir Charleroi Ativo 94 / 102 40% 3 25.12.2027 -
Gonçalo Oliveira Benfica Ativo 121 / 113 40% 2 23.12.2027 -
Tiago Freitas Benfica Ativo 107 / 128 40% 2 19.12.2027 -
Agustín Obregón River Plate Ativo 101 / 128 40% 2 18.12.2027 -
Nicolas Sport Recife Ativo 115 / 101 40% 2 17.12.2027 -
Juan Manuel Villalba Tigre Ativo 120 / 118 40% 2 06.12.2027 -
Hugo Rojas Instituto Ativo 118 / 123 40% 2 04.12.2027 -
Facundo Balatti Penarol Ativo 101 / 103 40% 1 30.11.2027 -
Tobias Moi Lillestrom Ativo 99 / 126 40% 2 16.11.2027 -
Niccolò Fortini Fiorentina Ativo 138 / 130 40% 1 15.11.2027 -
Matias Siltanen Malmo FF Ativo 108 / 116 40% 2 03.11.2027 -
Malick Yalcouyé Brighton Ativo 139 / 127 40% 2 01.11.2027 -
Halam Loboa Sevilla Ativo 128 / 136 40% 2 12.09.2027 -
José Cavadia Aguilas Doradas Ativo 93 / 103 40% 1 12.09.2027 -
Eliás Montiel Borussia Dortmund Ativo 142 / 148 40% 4 10.09.2027 -
Raphael Odogwu Südtirol Ativo 103 / 125 44% 1 28.06.2027 -
Gady Beyuku Blackburn Rovers Ativo 125 / 111 40% 1 04.06.2027 -
Johannes Eggestein Orlando City Ativo 125 / 125 68% 1 01.06.2027 Aprovar
Bence Dárdai VfL Wolfsburg Ativo 140 / 141 40% 5 28.05.2027 -
Bade Aluko Leicester City Ativo 109 / 128 40% 3 19.05.2027 -
Enzo Koffi Olympique de Marseille Ativo 107 / 111 40% 1 11.05.2027 -
Riley Owen Stevenage Ativo 111 / 115 40% 1 06.05.2027 -
Fabian Merién PSV Ativo 93 / 120 40% 2 04.05.2027 -
Kyllian Antonio RC Lens Ativo 118 / 124 40% 2 21.04.2027 -
Wessel Kuhn PSV Ativo 99 / 108 40% 1 17.04.2027 -
Riyad Idrissi Cagliari Ativo 131 / 117 40% 4 13.04.2027 -
David Ozoh Derby County Ativo 128 / 123 40% 2 11.04.2027 -
Jaygo van Ommeren Utrecht Ativo 111 / 106 40% 2 08.04.2027 -
Sascha Britschgi AC Milan Ativo 129 / 127 40% 1 08.04.2027 -
Eivind Helland AC Milan Ativo 127 / 142 40% 1 16.03.2027 -
Nicolò Zaniolo Udinese Ativo 152 / 146 40% 5 30.12.2026 -
Wesley AS Roma Ativo 137 / 142 40% 1 30.12.2026 -
Raoul Bellanova Atalanta Ativo 163 / 152 40% 2 28.12.2026 -
Hans Nicolussi Caviglia Parma Ativo 135 / 125 40% 1 28.12.2026 -
Unai Gómez Udinese Ativo 134 / 130 40% 1 27.12.2026 -
Marco Brescianini Fiorentina Ativo 145 / 153 40% 1 22.12.2026 -
Nicolò Cambiaghi Bologna Ativo 153 / 140 40% 2 19.12.2026 -
Mikael Egill Ellertsson Genoa Ativo 139 / 128 40% 1 16.12.2026 -
Fisayo Dele-Bashiru Lazio Ativo 150 / 143 40% 1 13.12.2026 -
Giovanni Giunti Bari Ativo 96 / 107 40% 1 09.12.2026 -
Lewis Ferguson Bologna Ativo 143 / 134 40% 2 05.12.2026 -
Juan Miranda Bologna Ativo 152 / 153 40% 1 22.11.2026 -
Tommaso Pobega Bologna Ativo 135 / 125 40% 1 16.11.2026 -
Martín Ojeda Orlando City Ativo 155 / 115 40% 1 15.11.2026 -
Billy Gilmour Napoli Ativo 135 / 144 40% 1 11.11.2026 -
Jens Petter Hauge Bodo/Glimt Ativo 119 / 158 40% 1 11.11.2026 -
Emanuele Valeri Parma Ativo 134 / 130 40% 1 08.11.2026 -
Andrea Colpani Monza Ativo 149 / 148 40% 1 05.11.2026 -
Philippe Ndinga Philadelphia Union Ativo 103 / 117 40% 1 05.11.2026 -
Nikita Stoinov Dinamo Bucharest Ativo 110 / 112 40% 1 04.11.2026 -
Corrado Riviera Renate Ativo 117 / 114 40% 1 04.11.2026 -
Adrián Bernabé Parma Ativo 134 / 146 40% 1 03.11.2026 -
Yunus Akgün Galatasaray Ativo 150 / 128 40% 2 01.11.2026 -
Xavi Simons Tottenham Ativo 145 / 167 40% 2 27.10.2026 -
Quinten Timber Crystal Palace Ativo 144 / 163 40% 1 25.10.2026 -
Wilson Isidor Sunderland Ativo 133 / 132 40% 1 21.10.2026 -
Cody Gakpo Liverpool Ativo 146 / 166 40% 1 21.10.2026 -
Yeremy Pino Crystal Palace Ativo 155 / 151 40% 1 20.10.2026 -
Matt O'Riley Brighton Ativo 158 / 151 40% 1 19.10.2026 -
Nuno Tavares Lazio Ativo 149 / 153 40% 2 16.10.2026 -
Marcus Edwards Burnley Ativo 126 / 127 40% 1 13.10.2026 -
Giacomo Raspadori Atalanta Ativo 156 / 158 40% 1 12.10.2026 -
Caleb Yirenkyi Coventry City Ativo 146 / 131 40% 1 08.09.2026 -
Lloyd Kelly Juventus Ativo 145 / 136 40% 1 07.09.2026 -
Stefano Scognamillo Benevento Ativo 125 / 131 44% 1 17.08.2026 -